createdAt,value
2019-04-07T00:02:16.387Z,19.57
2019-04-07T00:04:46.680Z,19.17
2019-04-07T00:07:16.549Z,16.93
2019-04-07T00:09:46.187Z,14.50
2019-04-07T00:12:16.303Z,15.63
2019-04-07T00:14:46.670Z,14.80
2019-04-07T00:17:16.352Z,16.20
2019-04-07T00:19:45.891Z,13.13
2019-04-07T00:22:15.438Z,12.73
2019-04-07T00:24:45.018Z,14.47
2019-04-07T00:27:14.980Z,15.20
2019-04-07T00:29:44.677Z,13.30
2019-04-07T00:32:14.341Z,15.60
2019-04-07T00:34:44.096Z,13.93
2019-04-07T00:37:14.061Z,12.20
2019-04-07T00:39:43.532Z,13.80
2019-04-07T00:42:13.565Z,11.47
2019-04-07T00:44:43.362Z,15.40
2019-04-07T00:47:13.065Z,16.47
2019-04-07T00:49:43.268Z,13.23
2019-04-07T00:52:14.239Z,11.80
2019-04-07T00:54:43.718Z,13.07
2019-04-07T00:57:13.110Z,12.97
2019-04-07T00:59:42.510Z,11.87
2019-04-07T01:02:12.357Z,12.30
2019-04-07T01:04:42.076Z,13.53
2019-04-07T01:07:11.648Z,14.17
2019-04-07T01:09:41.488Z,15.77
2019-04-07T01:12:10.977Z,14.43
2019-04-07T01:14:41.647Z,16.83
2019-04-07T01:17:11.536Z,14.30
2019-04-07T01:19:41.423Z,15.30
2019-04-07T01:22:11.145Z,13.70
2019-04-07T01:24:40.894Z,15.57
2019-04-07T01:27:10.666Z,14.47
2019-04-07T01:29:40.261Z,17.23
2019-04-07T01:32:10.208Z,17.93
2019-04-07T01:34:40.452Z,16.23
2019-04-07T01:37:10.815Z,15.63
2019-04-07T01:39:40.695Z,15.87
2019-04-07T01:42:16.351Z,17.30
2019-04-07T01:45:05.202Z,16.63
2019-04-07T01:47:53.041Z,16.43
2019-04-07T01:50:45.084Z,18.60
2019-04-07T01:53:32.431Z,17.83
2019-04-07T01:56:23.815Z,15.97
2019-04-07T01:59:10.517Z,18.00
2019-04-07T02:01:54.767Z,15.23
2019-04-07T02:04:49.212Z,17.43
2019-04-07T02:07:37.419Z,15.37
2019-04-07T02:10:29.200Z,16.73
2019-04-07T02:13:26.681Z,15.03
2019-04-07T02:16:01.396Z,17.23
2019-04-07T02:18:50.735Z,15.60
2019-04-07T02:21:48.462Z,16.03
2019-04-07T02:24:39.939Z,17.67
2019-04-07T02:27:34.868Z,15.60
2019-04-07T02:30:42.997Z,15.70
2019-04-07T02:33:23.208Z,15.00
2019-04-07T02:36:15.628Z,16.87
2019-04-07T02:38:39.044Z,16.40
2019-04-07T02:41:18.451Z,16.47
2019-04-07T02:44:02.887Z,15.60
2019-04-07T02:46:51.573Z,15.57
2019-04-07T02:49:39.391Z,18.10
2019-04-07T02:52:34.630Z,15.87
2019-04-07T02:55:35.638Z,15.80
2019-04-07T02:58:42.902Z,16.20
2019-04-07T03:01:24.106Z,16.13
2019-04-07T03:04:11.685Z,16.10
2019-04-07T03:07:00.639Z,15.23
2019-04-07T03:09:54.767Z,15.27
2019-04-07T03:12:45.432Z,16.87
2019-04-07T03:15:24.940Z,16.23
2019-04-07T03:18:10.248Z,16.83
2019-04-07T03:21:07.653Z,15.97
2019-04-07T03:24:09.311Z,16.30
2019-04-07T03:26:57.908Z,16.50
2019-04-07T03:29:49.476Z,18.13
2019-04-07T03:32:40.017Z,17.13
2019-04-07T03:35:17.266Z,15.70
2019-04-07T03:38:04.626Z,17.13
2019-04-07T03:41:09.719Z,18.07
2019-04-07T03:44:01.467Z,18.03
2019-04-07T03:46:53.636Z,16.80
2019-04-07T03:49:32.315Z,17.20
2019-04-07T03:52:17.089Z,17.57
2019-04-07T03:55:08.784Z,17.00
2019-04-07T03:57:56.944Z,19.13
2019-04-07T04:01:10.199Z,19.87
2019-04-07T04:03:46.239Z,18.63
2019-04-07T04:06:50.155Z,18.27
2019-04-07T04:09:39.752Z,18.07
2019-04-07T04:12:27.732Z,18.37
2019-04-07T04:15:03.995Z,27.20
2019-04-07T04:17:34.385Z,22.20
2019-04-07T04:20:04.378Z,22.97
2019-04-07T04:22:34.214Z,21.70
2019-04-07T04:25:03.799Z,23.17
2019-04-07T04:27:35.047Z,25.10
2019-04-07T04:30:05.127Z,24.37
2019-04-07T04:32:35.061Z,22.63
2019-04-07T04:35:04.653Z,24.93
2019-04-07T04:37:41.614Z,25.73
2019-04-07T04:40:06.084Z,22.93
2019-04-07T04:42:35.964Z,23.67
2019-04-07T04:45:06.514Z,22.77
2019-04-07T04:47:36.326Z,28.20
2019-04-07T04:50:08.054Z,29.67
2019-04-07T04:52:38.318Z,26.43
2019-04-07T04:55:09.156Z,23.87
2019-04-07T04:57:38.983Z,20.70
2019-04-07T05:00:09.057Z,20.00
2019-04-07T05:02:39.467Z,22.00
2019-04-07T05:05:11.056Z,22.67
2019-04-07T05:07:54.912Z,23.80
2019-04-07T05:10:13.324Z,24.43
2019-04-07T05:12:43.433Z,29.03
2019-04-07T05:15:13.385Z,27.63
2019-04-07T05:17:43.693Z,26.17
2019-04-07T05:20:13.792Z,27.13
2019-04-07T05:22:43.571Z,27.63
2019-04-07T05:25:14.035Z,37.97
2019-04-07T05:27:43.509Z,36.53
2019-04-07T05:30:13.358Z,38.57
2019-04-07T05:32:43.193Z,37.63
2019-04-07T05:35:13.215Z,39.93
2019-04-07T05:37:43.352Z,39.77
2019-04-07T05:40:14.027Z,36.03
2019-04-07T05:42:43.523Z,32.87
2019-04-07T05:45:12.923Z,34.33
2019-04-07T05:47:47.310Z,31.50
2019-04-07T05:50:14.447Z,32.10
2019-04-07T05:52:44.213Z,34.73
2019-04-07T05:55:14.313Z,38.37
2019-04-07T05:57:44.226Z,34.60
2019-04-07T06:00:16.543Z,36.10
2019-04-07T06:02:45.821Z,45.17
2019-04-07T06:05:17.281Z,34.97
2019-04-07T06:07:47.072Z,32.53
2019-04-07T06:10:18.227Z,33.73
2019-04-07T06:12:48.291Z,26.27
2019-04-07T06:15:22.023Z,31.30
2019-04-07T06:17:50.101Z,25.80
2019-04-07T06:20:19.825Z,24.43
2019-04-07T06:22:52.626Z,22.37
2019-04-07T06:25:21.178Z,21.03
2019-04-07T06:27:51.794Z,22.60
2019-04-07T06:30:22.258Z,24.13
2019-04-07T06:32:51.672Z,23.80
2019-04-07T06:35:22.393Z,22.43
2019-04-07T06:37:53.088Z,22.93
2019-04-07T06:40:23.146Z,23.27
2019-04-07T06:42:53.200Z,30.37
2019-04-07T06:45:26.564Z,30.27
2019-04-07T06:48:01.212Z,22.53
2019-04-07T06:50:59.685Z,20.23
2019-04-07T06:53:49.018Z,21.20
2019-04-07T06:57:06.326Z,21.60
2019-04-07T06:59:49.085Z,21.50
2019-04-07T07:02:39.170Z,20.93
2019-04-07T07:05:43.024Z,24.67
2019-04-07T07:08:21.766Z,25.47
2019-04-07T07:11:08.309Z,31.80
2019-04-07T07:13:57.756Z,37.00
2019-04-07T07:16:35.054Z,28.03
2019-04-07T07:19:15.169Z,24.87
2019-04-07T07:22:12.606Z,24.07
2019-04-07T07:24:39.292Z,22.23
2019-04-07T07:27:10.569Z,23.67
2019-04-07T07:29:40.929Z,22.50
2019-04-07T07:32:10.445Z,21.73
2019-04-07T07:34:42.224Z,27.33
2019-04-07T07:37:11.724Z,24.07
2019-04-07T07:39:42.654Z,33.03
2019-04-07T07:42:12.418Z,41.97
2019-04-07T07:44:41.869Z,27.23
2019-04-07T07:47:11.953Z,30.27
2019-04-07T07:49:42.464Z,26.07
2019-04-07T07:52:12.584Z,33.57
2019-04-07T07:54:45.063Z,26.67
2019-04-07T07:57:13.444Z,33.30
2019-04-07T07:59:43.317Z,42.63
2019-04-07T08:02:16.786Z,31.93
2019-04-07T08:04:44.890Z,30.60
2019-04-07T08:07:16.367Z,28.37
2019-04-07T08:09:46.082Z,29.67
2019-04-07T08:12:16.340Z,24.23
2019-04-07T08:14:50.267Z,30.07
2019-04-07T08:17:18.370Z,27.63
2019-04-07T08:19:48.253Z,27.90
2019-04-07T08:22:27.573Z,27.90
2019-04-07T08:24:51.717Z,27.27
2019-04-07T08:27:21.672Z,30.60
2019-04-07T08:29:51.351Z,25.07
2019-04-07T08:32:22.655Z,25.03
2019-04-07T08:34:52.266Z,26.40
2019-04-07T08:37:21.997Z,27.87
2019-04-07T08:39:52.515Z,31.87
2019-04-07T08:42:22.681Z,31.33
2019-04-07T08:44:52.360Z,28.20
2019-04-07T08:47:23.168Z,27.43
2019-04-07T08:49:55.347Z,29.77
2019-04-07T08:52:24.286Z,31.60
2019-04-07T08:54:53.884Z,32.50
2019-04-07T08:57:27.234Z,27.07
2019-04-07T08:59:55.107Z,26.07
2019-04-07T09:02:26.911Z,26.13
2019-04-07T09:04:56.752Z,25.60
2019-04-07T09:07:26.612Z,26.77
2019-04-07T09:09:56.673Z,27.80
2019-04-07T09:12:28.895Z,27.70
2019-04-07T09:14:58.330Z,25.77
2019-04-07T09:17:47.729Z,25.90
2019-04-07T09:20:31.359Z,28.47
2019-04-07T09:23:27.523Z,28.20
2019-04-07T09:26:11.584Z,27.63
2019-04-07T09:28:58.712Z,24.67
2019-04-07T09:31:46.292Z,24.30
2019-04-07T09:34:50.557Z,25.20
2019-04-07T09:37:40.023Z,25.53
2019-04-07T09:40:26.821Z,27.10
2019-04-07T09:43:19.182Z,34.70
2019-04-07T09:46:11.796Z,38.03
2019-04-07T09:48:57.646Z,31.50
2019-04-07T09:51:37.660Z,29.20
2019-04-07T09:54:23.590Z,31.13
2019-04-07T09:57:15.686Z,32.03
2019-04-07T10:00:23.995Z,32.77
2019-04-07T10:03:23.273Z,28.63
2019-04-07T10:06:21.773Z,28.33
2019-04-07T10:09:15.790Z,27.90
2019-04-07T10:12:01.588Z,29.83
2019-04-07T10:14:44.974Z,27.40
2019-04-07T10:17:43.657Z,28.93
2019-04-07T10:20:38.656Z,26.50
2019-04-07T10:23:30.375Z,28.83
2019-04-07T10:26:14.585Z,30.23
2019-04-07T10:28:51.681Z,29.50
2019-04-07T10:31:40.982Z,30.83
2019-04-07T10:34:28.462Z,32.97
2019-04-07T10:37:19.178Z,32.87
2019-04-07T10:40:16.885Z,48.07
2019-04-07T10:43:09.575Z,53.97
2019-04-07T10:46:02.365Z,36.30
2019-04-07T10:48:47.767Z,34.13
2019-04-07T10:51:31.979Z,36.20
2019-04-07T10:54:14.092Z,38.90
2019-04-07T10:57:09.099Z,38.37
2019-04-07T10:59:58.316Z,41.10
2019-04-07T11:02:45.936Z,39.83
2019-04-07T11:05:28.188Z,40.53
2019-04-07T11:08:11.723Z,36.07
2019-04-07T11:10:59.003Z,41.77
2019-04-07T11:13:51.659Z,42.87
2019-04-07T11:16:36.654Z,40.10
2019-04-07T11:19:18.032Z,37.50
2019-04-07T11:22:06.729Z,40.73
2019-04-07T11:24:53.821Z,41.87
2019-04-07T11:27:40.945Z,43.20
2019-04-07T11:30:29.598Z,41.70
2019-04-07T11:33:20.268Z,41.67
2019-04-07T11:36:25.555Z,39.67
2019-04-07T11:39:16.543Z,40.83
2019-04-07T11:42:11.821Z,43.33
2019-04-07T11:44:53.062Z,42.47
2019-04-07T11:47:41.689Z,46.00
2019-04-07T11:50:36.332Z,46.90
2019-04-07T11:53:30.519Z,47.77
2019-04-07T11:56:09.833Z,46.30
2019-04-07T11:58:55.953Z,48.77
2019-04-07T12:01:46.066Z,57.60
2019-04-07T12:04:26.936Z,51.03
2019-04-07T12:07:22.049Z,52.40
2019-04-07T12:10:09.606Z,69.70
2019-04-07T12:12:57.634Z,53.60
2019-04-07T12:15:48.796Z,49.70
2019-04-07T12:18:40.765Z,52.57
2019-04-07T12:21:19.351Z,49.33
2019-04-07T12:24:17.649Z,47.33
2019-04-07T12:27:01.103Z,51.37
2019-04-07T12:30:01.268Z,49.73
2019-04-07T12:32:48.727Z,51.00
2019-04-07T12:35:51.622Z,49.33
2019-04-07T12:38:46.220Z,52.17
2019-04-07T12:41:23.257Z,55.23
2019-04-07T12:44:17.961Z,52.30
2019-04-07T12:47:05.476Z,54.67
2019-04-07T12:49:58.392Z,59.23
2019-04-07T12:52:49.785Z,61.47
2019-04-07T12:55:51.521Z,54.30
2019-04-07T12:58:50.620Z,79.50
2019-04-07T13:01:41.367Z,67.47
2019-04-07T13:04:28.459Z,54.17
2019-04-07T13:07:27.140Z,60.33
2019-04-07T13:10:10.743Z,57.97
2019-04-07T13:13:14.402Z,58.17
2019-04-07T13:16:06.220Z,52.30
2019-04-07T13:18:53.088Z,55.57
2019-04-07T13:21:41.405Z,63.43
2019-04-07T13:24:34.109Z,56.40
2019-04-07T13:27:20.218Z,57.33
2019-04-07T13:30:00.902Z,53.33
2019-04-07T13:32:43.515Z,59.63
2019-04-07T13:35:28.520Z,55.60
2019-04-07T13:38:32.895Z,53.17
2019-04-07T13:41:21.736Z,55.60
2019-04-07T13:44:10.805Z,56.10
2019-04-07T13:46:59.082Z,53.03
2019-04-07T13:49:46.887Z,59.80
2019-04-07T13:52:45.368Z,55.50
2019-04-07T13:55:49.852Z,54.10
2019-04-07T13:58:41.458Z,59.67
2019-04-07T14:01:20.893Z,53.90
2019-04-07T14:03:59.139Z,48.23
2019-04-07T14:06:47.995Z,53.17
2019-04-07T14:09:35.375Z,51.00
2019-04-07T14:12:36.293Z,47.63
2019-04-07T14:15:41.998Z,51.30
2019-04-07T14:18:30.963Z,54.07
2019-04-07T14:21:22.785Z,54.63
2019-04-07T14:24:03.581Z,47.67
2019-04-07T14:26:51.680Z,55.70
2019-04-07T14:29:37.008Z,57.40
2019-04-07T14:32:28.502Z,55.10
2019-04-07T14:35:08.207Z,55.00
2019-04-07T14:37:57.200Z,57.07
2019-04-07T14:40:44.599Z,55.57
2019-04-07T14:43:27.033Z,51.77
2019-04-07T14:46:07.018Z,52.47
2019-04-07T14:49:01.624Z,49.47
2019-04-07T14:51:53.534Z,53.70
2019-04-07T14:55:01.444Z,52.50
2019-04-07T14:57:56.678Z,56.73
2019-04-07T15:00:54.714Z,54.90
2019-04-07T15:03:24.550Z,56.03
2019-04-07T15:05:56.499Z,55.63
2019-04-07T15:08:44.370Z,55.10
2019-04-07T15:11:51.186Z,60.13
2019-04-07T15:14:21.270Z,65.33
2019-04-07T15:16:51.360Z,62.37
2019-04-07T15:19:21.270Z,66.53
2019-04-07T15:21:53.901Z,67.67
2019-04-07T15:24:23.933Z,63.97
2019-04-07T15:26:54.115Z,61.57
2019-04-07T15:29:24.273Z,55.80
2019-04-07T15:31:54.427Z,60.73
2019-04-07T15:34:24.185Z,61.07
2019-04-07T15:36:54.007Z,54.30
2019-04-07T15:39:27.886Z,63.40
2019-04-07T15:41:55.611Z,56.70
2019-04-07T15:44:25.970Z,53.40
2019-04-07T15:46:56.483Z,58.80
2019-04-07T15:49:28.203Z,57.57
2019-04-07T15:51:57.586Z,58.87
2019-04-07T15:54:27.493Z,60.60
2019-04-07T15:56:58.786Z,55.77
2019-04-07T15:59:29.803Z,61.43
2019-04-07T16:02:00.041Z,105.77
2019-04-07T16:04:30.683Z,86.67
2019-04-07T16:07:00.461Z,59.27
2019-04-07T16:09:38.731Z,56.70
2019-04-07T16:12:01.746Z,57.10
2019-04-07T16:14:32.054Z,53.40
2019-04-07T16:17:04.074Z,51.87
2019-04-07T16:19:39.684Z,49.97
2019-04-07T16:22:04.685Z,60.17
2019-04-07T16:24:34.740Z,73.77
2019-04-07T16:27:06.733Z,54.37
2019-04-07T16:29:35.390Z,47.30
2019-04-07T16:32:04.999Z,49.47
2019-04-07T16:34:39.022Z,64.97
2019-04-07T16:37:08.328Z,74.07
2019-04-07T16:39:38.768Z,65.07
2019-04-07T16:42:09.329Z,72.63
2019-04-07T16:44:42.567Z,69.53
2019-04-07T16:47:19.531Z,61.87
2019-04-07T16:49:44.884Z,68.80
2019-04-07T16:52:13.520Z,72.03
2019-04-07T16:54:44.610Z,64.40
2019-04-07T16:57:15.331Z,63.73
2019-04-07T16:59:46.693Z,58.63
2019-04-07T17:02:17.925Z,58.93
2019-04-07T17:04:48.343Z,61.10
2019-04-07T17:07:18.354Z,68.70
2019-04-07T17:09:49.682Z,66.30
2019-04-07T17:12:19.071Z,72.57
2019-04-07T17:14:49.145Z,103.47
2019-04-07T17:17:21.705Z,82.63
2019-04-07T17:19:49.973Z,99.60
2019-04-07T17:22:19.755Z,81.83
2019-04-07T17:24:49.920Z,62.83
2019-04-07T17:27:20.318Z,57.73
2019-04-07T17:29:53.475Z,56.93
2019-04-07T17:32:21.421Z,57.40
2019-04-07T17:34:51.899Z,55.87
2019-04-07T17:37:25.659Z,74.97
2019-04-07T17:40:02.156Z,75.87
2019-04-07T17:42:32.340Z,84.60
2019-04-07T17:45:33.404Z,106.00
2019-04-07T17:48:21.331Z,121.33
2019-04-07T17:51:11.452Z,114.57
2019-04-07T17:54:12.585Z,100.97
2019-04-07T17:57:03.755Z,90.60
2019-04-07T17:59:54.773Z,76.97
2019-04-07T18:02:53.863Z,73.70
2019-04-07T18:05:36.630Z,71.90
2019-04-07T18:08:29.456Z,70.60
2019-04-07T18:11:30.194Z,62.83
2019-04-07T18:14:18.076Z,65.97
2019-04-07T18:17:19.030Z,62.07
2019-04-07T18:20:25.849Z,75.63
2019-04-07T18:23:13.000Z,80.97
2019-04-07T18:26:04.214Z,96.30
2019-04-07T18:28:41.261Z,98.83
2019-04-07T18:31:42.133Z,93.80
2019-04-07T18:34:34.082Z,92.10
2019-04-07T18:37:13.031Z,175.37
2019-04-07T18:39:55.079Z,186.77
2019-04-07T18:43:01.001Z,163.83
2019-04-07T18:45:44.803Z,171.93
2019-04-07T18:48:29.606Z,160.83
2019-04-07T18:51:18.408Z,149.93
2019-04-07T18:54:10.854Z,70.90
2019-04-07T18:56:59.508Z,61.70
2019-04-07T18:59:43.121Z,60.03
2019-04-07T19:02:31.782Z,60.60
2019-04-07T19:05:13.828Z,62.83
2019-04-07T19:07:57.291Z,66.07
2019-04-07T19:11:10.348Z,56.23
2019-04-07T19:14:01.291Z,56.47
2019-04-07T19:16:42.236Z,53.80
2019-04-07T19:19:29.760Z,57.20
2019-04-07T19:22:08.856Z,57.67
2019-04-07T19:24:57.917Z,67.10
2019-04-07T19:27:50.384Z,148.30
2019-04-07T19:30:37.648Z,214.50
2019-04-07T19:33:28.822Z,110.90
2019-04-07T19:36:23.553Z,129.67
2019-04-07T19:39:12.292Z,98.40
2019-04-07T19:42:00.961Z,76.87
2019-04-07T19:44:53.086Z,66.27
2019-04-07T19:47:39.660Z,66.23
2019-04-07T19:50:28.564Z,63.13
2019-04-07T19:53:31.040Z,58.90
2019-04-07T19:56:17.449Z,58.23
2019-04-07T19:59:06.070Z,56.63
2019-04-07T20:02:03.636Z,54.70
2019-04-07T20:04:45.845Z,52.00
2019-04-07T20:07:36.157Z,53.63
2019-04-07T20:10:25.375Z,53.77
2019-04-07T20:13:21.788Z,57.40
2019-04-07T20:16:12.936Z,58.00
2019-04-07T20:19:16.699Z,56.80
2019-04-07T20:22:05.445Z,56.30
2019-04-07T20:24:49.639Z,58.17
2019-04-07T20:27:38.034Z,58.80
2019-04-07T20:30:19.569Z,64.00
2019-04-07T20:33:04.148Z,65.73
2019-04-07T20:35:53.341Z,60.63
2019-04-07T20:38:44.762Z,54.00
2019-04-07T20:41:30.182Z,53.43
2019-04-07T20:44:08.606Z,51.63
2019-04-07T20:46:49.172Z,47.17
2019-04-07T20:49:42.194Z,53.90
2019-04-07T20:52:28.307Z,49.57
2019-04-07T20:55:15.571Z,51.20
2019-04-07T20:58:23.837Z,52.73
2019-04-07T21:01:27.693Z,56.00
2019-04-07T21:04:15.045Z,55.57
2019-04-07T21:06:54.041Z,57.33
2019-04-07T21:09:42.699Z,61.40
2019-04-07T21:12:37.205Z,54.80
2019-04-07T21:15:29.807Z,56.00
2019-04-07T21:18:28.899Z,53.10
2019-04-07T21:21:14.987Z,54.23
2019-04-07T21:23:51.855Z,51.93
2019-04-07T21:26:42.588Z,52.63
2019-04-07T21:29:45.649Z,49.30
2019-04-07T21:32:36.679Z,45.63
2019-04-07T21:35:15.811Z,44.83
2019-04-07T21:37:59.121Z,45.10
2019-04-07T21:40:45.577Z,43.37
2019-04-07T21:43:34.580Z,44.10
2019-04-07T21:46:28.951Z,45.27
2019-04-07T21:49:10.556Z,44.27
2019-04-07T21:51:55.353Z,50.23
2019-04-07T21:54:44.156Z,45.57
2019-04-07T21:57:38.757Z,43.97
2019-04-07T22:00:30.465Z,45.47
2019-04-07T22:03:33.165Z,46.97
2019-04-07T22:06:26.513Z,43.33
2019-04-07T22:09:00.323Z,41.83
2019-04-07T22:11:30.455Z,42.63
2019-04-07T22:14:00.982Z,44.03
2019-04-07T22:16:32.531Z,43.97
2019-04-07T22:19:02.302Z,41.07
2019-04-07T22:21:32.087Z,44.40
2019-04-07T22:24:02.208Z,41.70
2019-04-07T22:26:33.625Z,42.07
2019-04-07T22:29:05.210Z,43.77
2019-04-07T22:31:46.081Z,43.47
2019-04-07T22:34:16.487Z,44.20
2019-04-07T22:36:47.888Z,46.90
2019-04-07T22:39:18.466Z,48.97
2019-04-07T22:41:48.448Z,44.37
2019-04-07T22:44:20.405Z,44.07
2019-04-07T22:46:52.143Z,43.23
2019-04-07T22:49:20.924Z,47.63
2019-04-07T22:51:51.102Z,49.50
2019-04-07T22:54:22.256Z,51.00
2019-04-07T22:56:52.299Z,53.13
2019-04-07T22:59:21.932Z,65.67
2019-04-07T23:01:51.631Z,53.40
2019-04-07T23:04:21.167Z,49.47
2019-04-07T23:06:50.820Z,50.90
2019-04-07T23:09:20.535Z,51.57
2019-04-07T23:11:50.292Z,51.60
2019-04-07T23:14:19.964Z,48.93
2019-04-07T23:16:49.494Z,49.70
2019-04-07T23:19:19.053Z,49.57
2019-04-07T23:21:49.118Z,47.73
2019-04-07T23:24:19.231Z,47.97
2019-04-07T23:26:49.007Z,46.87
2019-04-07T23:29:19.772Z,47.03
2019-04-07T23:31:49.408Z,47.07
2019-04-07T23:34:19.096Z,44.97
2019-04-07T23:36:48.707Z,44.40
2019-04-07T23:39:19.546Z,50.57
2019-04-07T23:41:49.199Z,49.83
2019-04-07T23:44:18.913Z,44.70
2019-04-07T23:46:48.911Z,40.97
2019-04-07T23:49:19.089Z,39.47
2019-04-07T23:51:48.545Z,39.87
2019-04-07T23:54:18.359Z,39.83
2019-04-07T23:56:48.249Z,40.60
2019-04-07T23:59:18.719Z,37.77
